sensor_id;sensor_type;location;lat;lon;timestamp;temperature;humidity
75430;DHT22;64127;51.488;5.462;2023-03-31T00:01:22;12.60;99.90
75430;DHT22;64127;51.488;5.462;2023-03-31T00:03:56;12.50;99.90
75430;DHT22;64127;51.488;5.462;2023-03-31T00:06:37;12.60;99.90
75430;DHT22;64127;51.488;5.462;2023-03-31T00:09:16;12.60;99.90
75430;DHT22;64127;51.488;5.462;2023-03-31T00:11:53;12.50;99.90
75430;DHT22;64127;51.488;5.462;2023-03-31T00:14:26;12.50;99.90
75430;DHT22;64127;51.488;5.462;2023-03-31T00:16:58;12.50;99.90
75430;DHT22;64127;51.488;5.462;2023-03-31T00:19:33;12.50;99.90
75430;DHT22;64127;51.488;5.462;2023-03-31T00:22:05;12.50;99.90
75430;DHT22;64127;51.488;5.462;2023-03-31T00:24:37;12.50;99.90
75430;DHT22;64127;51.488;5.462;2023-03-31T00:27:09;12.50;99.90
75430;DHT22;64127;51.488;5.462;2023-03-31T00:29:42;12.40;99.90
75430;DHT22;64127;51.488;5.462;2023-03-31T00:32:14;12.40;99.90
75430;DHT22;64127;51.488;5.462;2023-03-31T00:34:49;12.40;99.90
75430;DHT22;64127;51.488;5.462;2023-03-31T00:37:21;12.40;99.90
75430;DHT22;64127;51.488;5.462;2023-03-31T00:39:53;12.50;99.90
75430;DHT22;64127;51.488;5.462;2023-03-31T00:42:25;12.50;99.90
75430;DHT22;64127;51.488;5.462;2023-03-31T00:48:13;12.50;99.90
75430;DHT22;64127;51.488;5.462;2023-03-31T00:50:55;12.40;99.90
75430;DHT22;64127;51.488;5.462;2023-03-31T00:53:31;12.30;99.90
75430;DHT22;64127;51.488;5.462;2023-03-31T00:56:10;12.30;99.90
75430;DHT22;64127;51.488;5.462;2023-03-31T00:58:44;12.30;99.90
75430;DHT22;64127;51.488;5.462;2023-03-31T01:01:20;12.30;99.90
75430;DHT22;64127;51.488;5.462;2023-03-31T01:03:57;12.30;99.90
75430;DHT22;64127;51.488;5.462;2023-03-31T01:06:30;12.30;99.90
75430;DHT22;64127;51.488;5.462;2023-03-31T01:09:03;12.30;99.90
75430;DHT22;64127;51.488;5.462;2023-03-31T01:11:37;12.30;99.90
75430;DHT22;64127;51.488;5.462;2023-03-31T01:14:11;12.30;99.90
75430;DHT22;64127;51.488;5.462;2023-03-31T01:16:43;12.30;99.90
75430;DHT22;64127;51.488;5.462;2023-03-31T01:48:16;12.20;99.90
75430;DHT22;64127;51.488;5.462;2023-03-31T01:51:00;12.20;99.90
75430;DHT22;64127;51.488;5.462;2023-03-31T01:57:13;12.20;99.90
75430;DHT22;64127;51.488;5.462;2023-03-31T02:00:05;12.10;99.90
75430;DHT22;64127;51.488;5.462;2023-03-31T02:05:26;12.20;99.90
75430;DHT22;64127;51.488;5.462;2023-03-31T02:08:11;12.10;99.90
75430;DHT22;64127;51.488;5.462;2023-03-31T02:10:48;12.10;99.90
75430;DHT22;64127;51.488;5.462;2023-03-31T02:13:27;12.10;99.90
75430;DHT22;64127;51.488;5.462;2023-03-31T02:16:05;12.10;99.90
75430;DHT22;64127;51.488;5.462;2023-03-31T02:18:43;12.10;99.90
75430;DHT22;64127;51.488;5.462;2023-03-31T02:21:20;12.10;99.90
75430;DHT22;64127;51.488;5.462;2023-03-31T02:23:53;12.10;99.90
75430;DHT22;64127;51.488;5.462;2023-03-31T02:26:32;12.10;99.90
75430;DHT22;64127;51.488;5.462;2023-03-31T02:29:18;12.10;99.90
75430;DHT22;64127;51.488;5.462;2023-03-31T02:32:25;12.20;99.90
75430;DHT22;64127;51.488;5.462;2023-03-31T02:35:11;12.20;99.90
75430;DHT22;64127;51.488;5.462;2023-03-31T02:37:47;12.10;99.90
75430;DHT22;64127;51.488;5.462;2023-03-31T02:40:24;12.10;99.90
75430;DHT22;64127;51.488;5.462;2023-03-31T02:42:58;12.10;99.90
75430;DHT22;64127;51.488;5.462;2023-03-31T02:45:48;12.10;99.90
75430;DHT22;64127;51.488;5.462;2023-03-31T02:48:25;12.10;99.90
75430;DHT22;64127;51.488;5.462;2023-03-31T03:02:32;12.10;99.90
75430;DHT22;64127;51.488;5.462;2023-03-31T03:14:19;12.10;99.90
75430;DHT22;64127;51.488;5.462;2023-03-31T03:17:08;12.10;99.90
75430;DHT22;64127;51.488;5.462;2023-03-31T03:19:51;12.10;99.90
75430;DHT22;64127;51.488;5.462;2023-03-31T03:22:26;12.10;99.90
75430;DHT22;64127;51.488;5.462;2023-03-31T03:24:58;12.10;99.90
75430;DHT22;64127;51.488;5.462;2023-03-31T03:27:31;12.20;99.90
75430;DHT22;64127;51.488;5.462;2023-03-31T03:30:08;12.10;99.90
75430;DHT22;64127;51.488;5.462;2023-03-31T03:32:42;12.20;99.90
75430;DHT22;64127;51.488;5.462;2023-03-31T03:35:14;12.10;99.90
75430;DHT22;64127;51.488;5.462;2023-03-31T03:37:46;12.10;99.90
75430;DHT22;64127;51.488;5.462;2023-03-31T03:40:18;12.10;99.90
75430;DHT22;64127;51.488;5.462;2023-03-31T03:42:50;12.10;99.90
75430;DHT22;64127;51.488;5.462;2023-03-31T03:45:22;12.10;99.90
75430;DHT22;64127;51.488;5.462;2023-03-31T03:47:55;12.10;99.90
75430;DHT22;64127;51.488;5.462;2023-03-31T03:50:27;12.10;99.90
75430;DHT22;64127;51.488;5.462;2023-03-31T03:52:59;12.10;99.90
75430;DHT22;64127;51.488;5.462;2023-03-31T03:55:31;12.00;99.90
75430;DHT22;64127;51.488;5.462;2023-03-31T03:58:03;12.10;99.90
75430;DHT22;64127;51.488;5.462;2023-03-31T04:00:36;12.00;99.90
75430;DHT22;64127;51.488;5.462;2023-03-31T04:03:08;12.00;99.90
75430;DHT22;64127;51.488;5.462;2023-03-31T04:05:40;12.00;99.90
75430;DHT22;64127;51.488;5.462;2023-03-31T04:08:12;12.00;99.90
75430;DHT22;64127;51.488;5.462;2023-03-31T04:10:45;11.90;99.90
75430;DHT22;64127;51.488;5.462;2023-03-31T04:13:22;11.90;99.90
75430;DHT22;64127;51.488;5.462;2023-03-31T04:15:55;11.90;99.90
75430;DHT22;64127;51.488;5.462;2023-03-31T04:18:27;11.90;99.90
75430;DHT22;64127;51.488;5.462;2023-03-31T04:20:59;11.90;99.90
75430;DHT22;64127;51.488;5.462;2023-03-31T04:23:42;11.90;99.90
75430;DHT22;64127;51.488;5.462;2023-03-31T04:26:17;11.90;99.90
75430;DHT22;64127;51.488;5.462;2023-03-31T04:28:57;12.00;99.90
75430;DHT22;64127;51.488;5.462;2023-03-31T04:31:30;12.00;99.90
75430;DHT22;64127;51.488;5.462;2023-03-31T04:34:04;12.00;99.90
75430;DHT22;64127;51.488;5.462;2023-03-31T04:36:38;12.00;99.90
75430;DHT22;64127;51.488;5.462;2023-03-31T04:39:18;12.00;99.90
75430;DHT22;64127;51.488;5.462;2023-03-31T04:41:58;12.00;99.90
75430;DHT22;64127;51.488;5.462;2023-03-31T04:44:31;12.00;99.90
75430;DHT22;64127;51.488;5.462;2023-03-31T04:47:03;12.00;99.90
75430;DHT22;64127;51.488;5.462;2023-03-31T04:49:37;12.00;99.90
75430;DHT22;64127;51.488;5.462;2023-03-31T04:52:09;12.00;99.90
75430;DHT22;64127;51.488;5.462;2023-03-31T04:54:41;11.90;99.90
75430;DHT22;64127;51.488;5.462;2023-03-31T04:57:13;11.90;99.90
75430;DHT22;64127;51.488;5.462;2023-03-31T04:59:46;11.90;99.90
75430;DHT22;64127;51.488;5.462;2023-03-31T05:02:18;11.90;99.90
75430;DHT22;64127;51.488;5.462;2023-03-31T05:04:56;11.90;99.90
75430;DHT22;64127;51.488;5.462;2023-03-31T05:07:28;11.90;99.90
75430;DHT22;64127;51.488;5.462;2023-03-31T05:10:00;11.90;99.90
75430;DHT22;64127;51.488;5.462;2023-03-31T05:12:36;11.80;99.90
75430;DHT22;64127;51.488;5.462;2023-03-31T05:15:09;11.80;99.90
75430;DHT22;64127;51.488;5.462;2023-03-31T05:17:42;11.80;99.90
75430;DHT22;64127;51.488;5.462;2023-03-31T05:20:14;11.80;99.90
75430;DHT22;64127;51.488;5.462;2023-03-31T05:22:46;11.70;99.90
75430;DHT22;64127;51.488;5.462;2023-03-31T05:25:18;11.70;99.90
75430;DHT22;64127;51.488;5.462;2023-03-31T05:27:50;11.70;99.90
75430;DHT22;64127;51.488;5.462;2023-03-31T05:30:25;11.70;99.90
75430;DHT22;64127;51.488;5.462;2023-03-31T05:32:57;11.70;99.90
75430;DHT22;64127;51.488;5.462;2023-03-31T05:35:29;11.70;99.90
75430;DHT22;64127;51.488;5.462;2023-03-31T05:38:01;11.70;99.90
75430;DHT22;64127;51.488;5.462;2023-03-31T05:40:34;11.70;99.90
75430;DHT22;64127;51.488;5.462;2023-03-31T05:43:06;11.70;99.90
75430;DHT22;64127;51.488;5.462;2023-03-31T05:45:38;11.70;99.90
75430;DHT22;64127;51.488;5.462;2023-03-31T05:48:10;11.70;99.90
75430;DHT22;64127;51.488;5.462;2023-03-31T05:50:42;11.70;99.90
75430;DHT22;64127;51.488;5.462;2023-03-31T05:53:14;11.70;99.90
75430;DHT22;64127;51.488;5.462;2023-03-31T05:55:46;11.70;99.90
75430;DHT22;64127;51.488;5.462;2023-03-31T05:58:18;11.70;99.90
75430;DHT22;64127;51.488;5.462;2023-03-31T06:01:32;11.70;99.90
75430;DHT22;64127;51.488;5.462;2023-03-31T06:03:57;11.70;99.90
75430;DHT22;64127;51.488;5.462;2023-03-31T06:06:29;11.60;99.90
75430;DHT22;64127;51.488;5.462;2023-03-31T06:09:05;11.60;99.90
75430;DHT22;64127;51.488;5.462;2023-03-31T06:11:37;11.60;99.90
75430;DHT22;64127;51.488;5.462;2023-03-31T06:14:10;11.70;99.90
75430;DHT22;64127;51.488;5.462;2023-03-31T06:16:42;11.70;99.90
75430;DHT22;64127;51.488;5.462;2023-03-31T06:19:14;11.60;99.90
75430;DHT22;64127;51.488;5.462;2023-03-31T06:21:46;11.60;99.90
75430;DHT22;64127;51.488;5.462;2023-03-31T06:24:19;11.70;99.90
75430;DHT22;64127;51.488;5.462;2023-03-31T06:26:51;11.60;99.90
75430;DHT22;64127;51.488;5.462;2023-03-31T06:29:25;11.60;99.90
75430;DHT22;64127;51.488;5.462;2023-03-31T06:31:57;11.60;99.90
75430;DHT22;64127;51.488;5.462;2023-03-31T06:34:30;11.60;99.90
75430;DHT22;64127;51.488;5.462;2023-03-31T06:37:07;11.70;99.90
75430;DHT22;64127;51.488;5.462;2023-03-31T06:39:39;11.60;99.90
75430;DHT22;64127;51.488;5.462;2023-03-31T06:42:11;11.60;99.90
75430;DHT22;64127;51.488;5.462;2023-03-31T06:44:43;11.60;99.90
75430;DHT22;64127;51.488;5.462;2023-03-31T06:47:16;11.60;99.90
75430;DHT22;64127;51.488;5.462;2023-03-31T06:49:48;11.60;99.90
75430;DHT22;64127;51.488;5.462;2023-03-31T06:52:20;11.60;99.90
75430;DHT22;64127;51.488;5.462;2023-03-31T06:54:52;11.60;99.90
75430;DHT22;64127;51.488;5.462;2023-03-31T06:57:26;11.60;99.90
75430;DHT22;64127;51.488;5.462;2023-03-31T06:59:59;11.60;99.90
75430;DHT22;64127;51.488;5.462;2023-03-31T07:02:31;11.60;99.90
75430;DHT22;64127;51.488;5.462;2023-03-31T07:05:04;11.60;99.90
75430;DHT22;64127;51.488;5.462;2023-03-31T07:07:37;11.60;99.90
75430;DHT22;64127;51.488;5.462;2023-03-31T07:10:09;11.60;99.90
75430;DHT22;64127;51.488;5.462;2023-03-31T07:12:41;11.60;99.90
75430;DHT22;64127;51.488;5.462;2023-03-31T07:15:14;11.60;99.90
75430;DHT22;64127;51.488;5.462;2023-03-31T07:17:47;11.60;99.90
75430;DHT22;64127;51.488;5.462;2023-03-31T07:20:21;11.60;99.90
75430;DHT22;64127;51.488;5.462;2023-03-31T07:22:53;11.60;99.90
75430;DHT22;64127;51.488;5.462;2023-03-31T07:25:26;11.60;99.90
75430;DHT22;64127;51.488;5.462;2023-03-31T07:27:58;11.60;99.90
75430;DHT22;64127;51.488;5.462;2023-03-31T07:30:30;11.70;99.90
75430;DHT22;64127;51.488;5.462;2023-03-31T07:33:04;11.60;99.90
75430;DHT22;64127;51.488;5.462;2023-03-31T07:35:38;11.60;99.90
75430;DHT22;64127;51.488;5.462;2023-03-31T07:38:11;11.60;99.90
75430;DHT22;64127;51.488;5.462;2023-03-31T07:40:44;11.50;99.90
75430;DHT22;64127;51.488;5.462;2023-03-31T07:43:36;11.50;99.90
75430;DHT22;64127;51.488;5.462;2023-03-31T07:46:17;11.50;99.90
75430;DHT22;64127;51.488;5.462;2023-03-31T07:48:56;11.50;99.90
75430;DHT22;64127;51.488;5.462;2023-03-31T07:51:28;11.60;99.90
75430;DHT22;64127;51.488;5.462;2023-03-31T07:54:01;11.60;99.90
75430;DHT22;64127;51.488;5.462;2023-03-31T07:56:33;11.70;99.90
75430;DHT22;64127;51.488;5.462;2023-03-31T07:59:05;11.70;99.90
75430;DHT22;64127;51.488;5.462;2023-03-31T08:01:37;11.80;99.90
75430;DHT22;64127;51.488;5.462;2023-03-31T08:04:13;11.80;99.90
75430;DHT22;64127;51.488;5.462;2023-03-31T08:06:46;11.90;99.90
75430;DHT22;64127;51.488;5.462;2023-03-31T08:09:18;12.00;99.90
75430;DHT22;64127;51.488;5.462;2023-03-31T08:11:52;12.00;99.90
75430;DHT22;64127;51.488;5.462;2023-03-31T08:14:27;12.10;99.90
75430;DHT22;64127;51.488;5.462;2023-03-31T08:17:12;12.20;99.90
75430;DHT22;64127;51.488;5.462;2023-03-31T08:19:44;12.20;99.90
75430;DHT22;64127;51.488;5.462;2023-03-31T08:22:16;12.30;99.90
75430;DHT22;64127;51.488;5.462;2023-03-31T08:24:48;12.30;99.90
75430;DHT22;64127;51.488;5.462;2023-03-31T08:27:23;12.40;99.90
75430;DHT22;64127;51.488;5.462;2023-03-31T08:29:56;12.50;99.90
75430;DHT22;64127;51.488;5.462;2023-03-31T08:32:30;12.50;99.90
75430;DHT22;64127;51.488;5.462;2023-03-31T08:35:09;12.60;99.90
75430;DHT22;64127;51.488;5.462;2023-03-31T08:37:43;12.60;99.90
75430;DHT22;64127;51.488;5.462;2023-03-31T08:40:21;12.60;99.90
75430;DHT22;64127;51.488;5.462;2023-03-31T08:43:04;12.70;99.90
75430;DHT22;64127;51.488;5.462;2023-03-31T08:45:46;12.70;99.90
75430;DHT22;64127;51.488;5.462;2023-03-31T08:48:28;12.70;99.90
75430;DHT22;64127;51.488;5.462;2023-03-31T08:51:13;12.70;99.90
75430;DHT22;64127;51.488;5.462;2023-03-31T08:56:28;12.70;99.90
75430;DHT22;64127;51.488;5.462;2023-03-31T08:59:05;12.70;99.90
75430;DHT22;64127;51.488;5.462;2023-03-31T09:11:34;12.80;99.90
75430;DHT22;64127;51.488;5.462;2023-03-31T09:14:32;12.90;99.90
75430;DHT22;64127;51.488;5.462;2023-03-31T09:17:23;12.90;99.90
75430;DHT22;64127;51.488;5.462;2023-03-31T09:20:29;13.00;99.90
75430;DHT22;64127;51.488;5.462;2023-03-31T09:25:50;13.10;99.90
75430;DHT22;64127;51.488;5.462;2023-03-31T09:28:39;13.20;99.90
75430;DHT22;64127;51.488;5.462;2023-03-31T09:31:17;13.20;99.90
75430;DHT22;64127;51.488;5.462;2023-03-31T09:34:00;13.20;99.90
75430;DHT22;64127;51.488;5.462;2023-03-31T09:36:41;13.20;99.90
75430;DHT22;64127;51.488;5.462;2023-03-31T09:39:13;13.20;99.90
75430;DHT22;64127;51.488;5.462;2023-03-31T09:41:49;13.30;99.90
75430;DHT22;64127;51.488;5.462;2023-03-31T09:44:37;13.30;99.90
75430;DHT22;64127;51.488;5.462;2023-03-31T09:47:28;13.40;99.90
75430;DHT22;64127;51.488;5.462;2023-03-31T09:50:07;13.60;99.90
75430;DHT22;64127;51.488;5.462;2023-03-31T09:52:49;13.60;99.90
75430;DHT22;64127;51.488;5.462;2023-03-31T09:55:27;13.70;99.90
75430;DHT22;64127;51.488;5.462;2023-03-31T09:58:13;13.80;99.90
75430;DHT22;64127;51.488;5.462;2023-03-31T10:01:13;13.80;99.90
75430;DHT22;64127;51.488;5.462;2023-03-31T10:03:51;13.80;99.90
75430;DHT22;64127;51.488;5.462;2023-03-31T10:06:25;13.80;99.90
75430;DHT22;64127;51.488;5.462;2023-03-31T10:09:02;13.90;99.90
75430;DHT22;64127;51.488;5.462;2023-03-31T10:11:36;13.90;99.90
75430;DHT22;64127;51.488;5.462;2023-03-31T10:14:15;14.00;99.90
75430;DHT22;64127;51.488;5.462;2023-03-31T10:16:53;14.00;99.90
75430;DHT22;64127;51.488;5.462;2023-03-31T10:19:32;14.00;99.90
75430;DHT22;64127;51.488;5.462;2023-03-31T10:24:53;13.80;99.90
75430;DHT22;64127;51.488;5.462;2023-03-31T10:27:29;13.80;99.90
75430;DHT22;64127;51.488;5.462;2023-03-31T10:30:10;13.80;99.90
75430;DHT22;64127;51.488;5.462;2023-03-31T10:32:44;13.80;99.90
75430;DHT22;64127;51.488;5.462;2023-03-31T10:35:33;13.80;99.90
75430;DHT22;64127;51.488;5.462;2023-03-31T10:38:30;13.90;99.90
75430;DHT22;64127;51.488;5.462;2023-03-31T10:41:18;13.90;99.90
75430;DHT22;64127;51.488;5.462;2023-03-31T10:44:00;13.90;99.90
75430;DHT22;64127;51.488;5.462;2023-03-31T10:46:51;13.80;99.90
75430;DHT22;64127;51.488;5.462;2023-03-31T10:49:27;13.80;99.90
75430;DHT22;64127;51.488;5.462;2023-03-31T10:52:24;13.80;99.90
75430;DHT22;64127;51.488;5.462;2023-03-31T10:55:00;13.80;99.90
75430;DHT22;64127;51.488;5.462;2023-03-31T10:57:55;13.80;99.90
75430;DHT22;64127;51.488;5.462;2023-03-31T11:16:17;13.80;99.90
75430;DHT22;64127;51.488;5.462;2023-03-31T11:18:54;13.70;99.90
75430;DHT22;64127;51.488;5.462;2023-03-31T11:30:56;13.70;99.90
75430;DHT22;64127;51.488;5.462;2023-03-31T11:34:00;13.80;99.90
75430;DHT22;64127;51.488;5.462;2023-03-31T11:36:50;13.80;99.90
75430;DHT22;64127;51.488;5.462;2023-03-31T11:43:01;13.90;99.90
75430;DHT22;64127;51.488;5.462;2023-03-31T11:46:20;13.90;99.90
75430;DHT22;64127;51.488;5.462;2023-03-31T11:49:23;13.90;99.90
75430;DHT22;64127;51.488;5.462;2023-03-31T11:52:13;13.90;99.90
75430;DHT22;64127;51.488;5.462;2023-03-31T11:54:57;13.90;99.90
75430;DHT22;64127;51.488;5.462;2023-03-31T11:58:03;13.90;99.90
75430;DHT22;64127;51.488;5.462;2023-03-31T12:03:43;14.20;99.90
75430;DHT22;64127;51.488;5.462;2023-03-31T12:06:30;14.30;99.90
75430;DHT22;64127;51.488;5.462;2023-03-31T12:09:46;14.40;99.90
75430;DHT22;64127;51.488;5.462;2023-03-31T12:12:43;14.40;99.90
75430;DHT22;64127;51.488;5.462;2023-03-31T12:15:22;14.40;99.90
75430;DHT22;64127;51.488;5.462;2023-03-31T12:20:58;14.50;99.90
75430;DHT22;64127;51.488;5.462;2023-03-31T12:23:39;14.50;99.90
75430;DHT22;64127;51.488;5.462;2023-03-31T12:32:15;14.60;99.90
75430;DHT22;64127;51.488;5.462;2023-03-31T12:52:59;15.00;99.90
75430;DHT22;64127;51.488;5.462;2023-03-31T12:55:40;14.90;99.90
75430;DHT22;64127;51.488;5.462;2023-03-31T13:01:22;14.70;99.90
75430;DHT22;64127;51.488;5.462;2023-03-31T13:06:55;14.60;99.90
75430;DHT22;64127;51.488;5.462;2023-03-31T13:09:40;14.50;99.90
75430;DHT22;64127;51.488;5.462;2023-03-31T13:12:22;14.50;99.90
75430;DHT22;64127;51.488;5.462;2023-03-31T13:15:03;14.40;99.90
75430;DHT22;64127;51.488;5.462;2023-03-31T13:17:36;14.40;99.90
75430;DHT22;64127;51.488;5.462;2023-03-31T13:20:25;14.40;99.90
75430;DHT22;64127;51.488;5.462;2023-03-31T13:28:24;14.30;99.90
75430;DHT22;64127;51.488;5.462;2023-03-31T13:31:17;14.30;99.90
75430;DHT22;64127;51.488;5.462;2023-03-31T13:33:58;14.30;99.90
75430;DHT22;64127;51.488;5.462;2023-03-31T13:39:26;14.30;99.90
75430;DHT22;64127;51.488;5.462;2023-03-31T13:44:59;14.20;99.90
75430;DHT22;64127;51.488;5.462;2023-03-31T13:50:40;14.10;99.90
75430;DHT22;64127;51.488;5.462;2023-03-31T14:11:15;13.60;99.90
75430;DHT22;64127;51.488;5.462;2023-03-31T14:14:11;13.50;99.90
75430;DHT22;64127;51.488;5.462;2023-03-31T14:16:52;13.50;99.90
75430;DHT22;64127;51.488;5.462;2023-03-31T14:19:53;13.50;99.90
75430;DHT22;64127;51.488;5.462;2023-03-31T14:25:55;13.50;99.90
75430;DHT22;64127;51.488;5.462;2023-03-31T14:37:31;13.40;99.90
75430;DHT22;64127;51.488;5.462;2023-03-31T14:40:05;13.40;99.90
75430;DHT22;64127;51.488;5.462;2023-03-31T14:42:45;13.40;99.90
75430;DHT22;64127;51.488;5.462;2023-03-31T14:45:25;13.40;99.90
75430;DHT22;64127;51.488;5.462;2023-03-31T14:48:10;13.40;99.90
75430;DHT22;64127;51.488;5.462;2023-03-31T14:50:48;13.40;99.90
75430;DHT22;64127;51.488;5.462;2023-03-31T14:53:23;13.40;99.90
75430;DHT22;64127;51.488;5.462;2023-03-31T14:56:06;13.40;99.90
75430;DHT22;64127;51.488;5.462;2023-03-31T14:58:51;13.30;99.90
75430;DHT22;64127;51.488;5.462;2023-03-31T15:01:29;13.40;99.90
75430;DHT22;64127;51.488;5.462;2023-03-31T15:04:18;13.30;99.90
75430;DHT22;64127;51.488;5.462;2023-03-31T15:07:06;13.30;99.90
75430;DHT22;64127;51.488;5.462;2023-03-31T15:09:39;13.30;99.90
75430;DHT22;64127;51.488;5.462;2023-03-31T15:12:15;13.20;99.90
75430;DHT22;64127;51.488;5.462;2023-03-31T15:15:10;13.20;99.90
75430;DHT22;64127;51.488;5.462;2023-03-31T15:17:46;13.20;99.90
75430;DHT22;64127;51.488;5.462;2023-03-31T15:20:34;13.20;99.90
75430;DHT22;64127;51.488;5.462;2023-03-31T15:23:26;13.20;99.90
75430;DHT22;64127;51.488;5.462;2023-03-31T15:26:09;13.20;99.90
75430;DHT22;64127;51.488;5.462;2023-03-31T15:29:02;13.10;99.90
75430;DHT22;64127;51.488;5.462;2023-03-31T15:31:37;13.10;99.90
75430;DHT22;64127;51.488;5.462;2023-03-31T15:34:30;13.10;99.90
75430;DHT22;64127;51.488;5.462;2023-03-31T15:37:08;13.00;99.90
75430;DHT22;64127;51.488;5.462;2023-03-31T15:39:46;13.00;99.90
75430;DHT22;64127;51.488;5.462;2023-03-31T15:42:19;12.90;99.90
75430;DHT22;64127;51.488;5.462;2023-03-31T15:48:19;12.80;99.90
75430;DHT22;64127;51.488;5.462;2023-03-31T15:50:58;12.80;99.90
75430;DHT22;64127;51.488;5.462;2023-03-31T15:53:46;12.80;99.90
75430;DHT22;64127;51.488;5.462;2023-03-31T15:59:24;12.70;99.90
75430;DHT22;64127;51.488;5.462;2023-03-31T16:02:20;12.60;99.90
75430;DHT22;64127;51.488;5.462;2023-03-31T16:04:57;12.60;99.90
75430;DHT22;64127;51.488;5.462;2023-03-31T16:07:33;12.50;99.90
75430;DHT22;64127;51.488;5.462;2023-03-31T16:10:16;12.50;99.90
75430;DHT22;64127;51.488;5.462;2023-03-31T16:12:58;12.50;99.90
75430;DHT22;64127;51.488;5.462;2023-03-31T16:15:43;12.50;99.90
75430;DHT22;64127;51.488;5.462;2023-03-31T16:18:35;12.50;99.90
75430;DHT22;64127;51.488;5.462;2023-03-31T16:21:10;12.50;99.90
75430;DHT22;64127;51.488;5.462;2023-03-31T16:23:51;12.50;99.90
75430;DHT22;64127;51.488;5.462;2023-03-31T16:26:27;12.50;99.90
75430;DHT22;64127;51.488;5.462;2023-03-31T16:29:00;12.60;99.90
75430;DHT22;64127;51.488;5.462;2023-03-31T16:31:37;12.60;99.90
75430;DHT22;64127;51.488;5.462;2023-03-31T16:34:11;12.60;99.90
75430;DHT22;64127;51.488;5.462;2023-03-31T16:36:46;12.50;99.90
75430;DHT22;64127;51.488;5.462;2023-03-31T16:39:18;12.50;99.90
75430;DHT22;64127;51.488;5.462;2023-03-31T16:41:51;12.50;99.90
75430;DHT22;64127;51.488;5.462;2023-03-31T16:44:23;12.50;99.90
75430;DHT22;64127;51.488;5.462;2023-03-31T16:46:56;12.50;99.90
75430;DHT22;64127;51.488;5.462;2023-03-31T16:49:28;12.40;99.90
75430;DHT22;64127;51.488;5.462;2023-03-31T16:52:00;12.40;99.90
75430;DHT22;64127;51.488;5.462;2023-03-31T16:54:44;12.50;99.90
75430;DHT22;64127;51.488;5.462;2023-03-31T16:57:16;12.50;99.90
75430;DHT22;64127;51.488;5.462;2023-03-31T16:59:49;12.50;99.90
75430;DHT22;64127;51.488;5.462;2023-03-31T17:02:21;12.50;99.90
75430;DHT22;64127;51.488;5.462;2023-03-31T17:04:53;12.40;99.90
75430;DHT22;64127;51.488;5.462;2023-03-31T17:07:36;12.40;99.90
75430;DHT22;64127;51.488;5.462;2023-03-31T17:10:09;12.40;99.90
75430;DHT22;64127;51.488;5.462;2023-03-31T17:12:41;12.40;99.90
75430;DHT22;64127;51.488;5.462;2023-03-31T17:15:13;12.30;99.90
75430;DHT22;64127;51.488;5.462;2023-03-31T17:17:46;12.30;99.90
75430;DHT22;64127;51.488;5.462;2023-03-31T17:20:18;12.30;99.90
75430;DHT22;64127;51.488;5.462;2023-03-31T17:22:51;12.30;99.90
75430;DHT22;64127;51.488;5.462;2023-03-31T17:25:23;12.20;99.90
75430;DHT22;64127;51.488;5.462;2023-03-31T17:27:55;12.20;99.90
75430;DHT22;64127;51.488;5.462;2023-03-31T17:30:28;12.20;99.90
75430;DHT22;64127;51.488;5.462;2023-03-31T17:33:00;12.10;99.90
75430;DHT22;64127;51.488;5.462;2023-03-31T17:35:32;12.10;99.90
75430;DHT22;64127;51.488;5.462;2023-03-31T17:38:04;12.10;99.90
75430;DHT22;64127;51.488;5.462;2023-03-31T17:40:36;12.10;99.90
75430;DHT22;64127;51.488;5.462;2023-03-31T17:43:08;12.10;99.90
75430;DHT22;64127;51.488;5.462;2023-03-31T17:45:40;12.10;99.90
75430;DHT22;64127;51.488;5.462;2023-03-31T17:48:12;12.00;99.90
75430;DHT22;64127;51.488;5.462;2023-03-31T17:50:45;12.00;99.90
75430;DHT22;64127;51.488;5.462;2023-03-31T17:53:17;12.00;99.90
75430;DHT22;64127;51.488;5.462;2023-03-31T17:55:49;11.90;99.90
75430;DHT22;64127;51.488;5.462;2023-03-31T17:58:21;11.90;99.90
75430;DHT22;64127;51.488;5.462;2023-03-31T18:00:53;11.90;99.90
75430;DHT22;64127;51.488;5.462;2023-03-31T18:03:29;11.90;99.90
75430;DHT22;64127;51.488;5.462;2023-03-31T18:06:05;11.90;99.90
75430;DHT22;64127;51.488;5.462;2023-03-31T18:08:40;11.80;99.90
75430;DHT22;64127;51.488;5.462;2023-03-31T18:11:13;11.80;99.90
75430;DHT22;64127;51.488;5.462;2023-03-31T18:13:46;11.90;99.90
75430;DHT22;64127;51.488;5.462;2023-03-31T18:16:18;11.90;99.90
75430;DHT22;64127;51.488;5.462;2023-03-31T18:18:51;11.90;99.90
75430;DHT22;64127;51.488;5.462;2023-03-31T18:21:23;11.90;99.90
75430;DHT22;64127;51.488;5.462;2023-03-31T18:23:55;11.90;99.90
75430;DHT22;64127;51.488;5.462;2023-03-31T18:26:28;11.90;99.90
75430;DHT22;64127;51.488;5.462;2023-03-31T18:29:00;11.90;99.90
75430;DHT22;64127;51.488;5.462;2023-03-31T18:31:32;11.80;99.90
75430;DHT22;64127;51.488;5.462;2023-03-31T18:34:04;11.80;99.90
75430;DHT22;64127;51.488;5.462;2023-03-31T18:36:37;11.70;99.90
75430;DHT22;64127;51.488;5.462;2023-03-31T18:39:09;11.70;99.90
75430;DHT22;64127;51.488;5.462;2023-03-31T18:41:45;11.70;99.90
75430;DHT22;64127;51.488;5.462;2023-03-31T18:44:19;11.60;99.90
75430;DHT22;64127;51.488;5.462;2023-03-31T18:46:52;11.60;99.90
75430;DHT22;64127;51.488;5.462;2023-03-31T18:49:24;11.60;99.90
75430;DHT22;64127;51.488;5.462;2023-03-31T18:51:56;11.60;99.90
75430;DHT22;64127;51.488;5.462;2023-03-31T18:54:29;11.50;99.90
75430;DHT22;64127;51.488;5.462;2023-03-31T18:57:02;11.50;99.90
75430;DHT22;64127;51.488;5.462;2023-03-31T18:59:34;11.50;99.90
75430;DHT22;64127;51.488;5.462;2023-03-31T19:02:08;11.50;99.90
75430;DHT22;64127;51.488;5.462;2023-03-31T19:04:46;11.50;99.90
75430;DHT22;64127;51.488;5.462;2023-03-31T19:07:18;11.50;99.90
75430;DHT22;64127;51.488;5.462;2023-03-31T19:09:51;11.50;99.90
75430;DHT22;64127;51.488;5.462;2023-03-31T19:12:23;11.50;99.90
75430;DHT22;64127;51.488;5.462;2023-03-31T19:14:55;11.40;99.90
75430;DHT22;64127;51.488;5.462;2023-03-31T19:17:26;11.40;99.90
75430;DHT22;64127;51.488;5.462;2023-03-31T19:19:59;11.40;99.90
75430;DHT22;64127;51.488;5.462;2023-03-31T19:22:31;11.40;99.90
75430;DHT22;64127;51.488;5.462;2023-03-31T19:25:03;11.40;99.90
75430;DHT22;64127;51.488;5.462;2023-03-31T19:27:36;11.40;99.90
75430;DHT22;64127;51.488;5.462;2023-03-31T19:30:15;11.40;99.90
75430;DHT22;64127;51.488;5.462;2023-03-31T19:32:49;11.40;99.90
75430;DHT22;64127;51.488;5.462;2023-03-31T19:35:21;11.40;99.90
75430;DHT22;64127;51.488;5.462;2023-03-31T19:37:53;11.30;99.90
75430;DHT22;64127;51.488;5.462;2023-03-31T19:40:28;11.30;99.90
75430;DHT22;64127;51.488;5.462;2023-03-31T19:43:00;11.40;99.90
75430;DHT22;64127;51.488;5.462;2023-03-31T19:45:35;11.30;99.90